createdAt,value
2019-05-25T00:00:32.361Z,74
2019-05-25T00:01:32.392Z,74
2019-05-25T00:02:32.387Z,74
2019-05-25T00:03:32.416Z,74
2019-05-25T00:04:32.458Z,74
2019-05-25T00:05:32.476Z,74
2019-05-25T00:06:32.560Z,74
2019-05-25T00:07:32.584Z,74
2019-05-25T00:08:32.625Z,74
2019-05-25T00:09:32.675Z,74
2019-05-25T00:10:32.725Z,74
2019-05-25T00:11:32.758Z,74
2019-05-25T00:12:32.780Z,74
2019-05-25T00:13:32.897Z,74
2019-05-25T00:14:32.879Z,74
2019-05-25T00:15:32.886Z,74
2019-05-25T00:16:32.946Z,74
2019-05-25T00:17:32.883Z,74
2019-05-25T00:18:32.990Z,74
2019-05-25T00:19:33.007Z,74
2019-05-25T00:20:33.011Z,74
2019-05-25T00:21:33.055Z,74
2019-05-25T00:22:33.043Z,75
2019-05-25T00:23:33.059Z,75
2019-05-25T00:24:33.157Z,74
2019-05-25T00:25:33.148Z,74
2019-05-25T00:26:33.192Z,75
2019-05-25T00:27:33.218Z,75
2019-05-25T00:28:33.220Z,75
2019-05-25T00:29:33.307Z,75
2019-05-25T00:30:33.305Z,75
2019-05-25T00:31:33.317Z,75
2019-05-25T00:32:33.356Z,75
2019-05-25T00:33:33.382Z,75
2019-05-25T00:34:33.450Z,75
2019-05-25T00:35:33.449Z,75
2019-05-25T00:36:33.461Z,75
2019-05-25T00:37:33.466Z,75
2019-05-25T00:38:33.482Z,75
2019-05-25T00:39:33.538Z,75
2019-05-25T00:40:33.543Z,75
2019-05-25T00:41:33.573Z,75
2019-05-25T00:42:33.570Z,75
2019-05-25T00:43:33.596Z,75
2019-05-25T00:44:33.643Z,75
2019-05-25T00:45:33.649Z,75
2019-05-25T00:46:33.657Z,75
2019-05-25T00:47:33.660Z,75
2019-05-25T00:48:33.697Z,75
2019-05-25T00:49:33.689Z,75
2019-05-25T00:50:33.728Z,75
2019-05-25T00:51:33.708Z,75
2019-05-25T00:52:33.830Z,75
2019-05-25T00:53:33.881Z,75
2019-05-25T00:54:33.707Z,75
2019-05-25T00:55:33.759Z,75
2019-05-25T00:56:33.740Z,75
2019-05-25T00:57:33.736Z,75
2019-05-25T00:58:33.725Z,75
2019-05-25T00:59:33.823Z,75
2019-05-25T01:00:33.887Z,75
2019-05-25T01:01:33.944Z,74
2019-05-25T01:02:33.936Z,75
2019-05-25T01:03:33.978Z,75
2019-05-25T01:04:34.030Z,75
2019-05-25T01:05:34.108Z,75
2019-05-25T01:06:34.065Z,75
2019-05-25T01:07:34.162Z,75
2019-05-25T01:08:34.215Z,75
2019-05-25T01:09:34.308Z,75
2019-05-25T01:10:34.324Z,75
2019-05-25T01:11:34.360Z,75
2019-05-25T01:12:34.414Z,75
2019-05-25T01:13:34.444Z,75
2019-05-25T01:14:34.511Z,75
2019-05-25T01:15:34.607Z,75
2019-05-25T01:16:34.653Z,75
2019-05-25T01:17:34.645Z,74
2019-05-25T01:18:34.648Z,75
2019-05-25T01:19:34.642Z,75
2019-05-25T01:20:34.757Z,74
2019-05-25T01:21:34.775Z,74
2019-05-25T01:22:34.791Z,75
2019-05-25T01:23:34.797Z,74
2019-05-25T01:24:43.629Z,74
2019-05-25T01:25:34.861Z,74
2019-05-25T01:26:34.905Z,75
2019-05-25T01:27:34.983Z,75
2019-05-25T01:28:37.738Z,75
2019-05-25T01:29:35.047Z,75
2019-05-25T01:30:35.110Z,74
2019-05-25T01:31:35.120Z,75
2019-05-25T01:32:35.205Z,74
2019-05-25T01:33:35.213Z,73
2019-05-25T01:34:35.249Z,74
2019-05-25T01:35:35.291Z,74
2019-05-25T01:36:35.313Z,74
2019-05-25T01:37:35.325Z,74
2019-05-25T01:38:35.368Z,74
2019-05-25T01:39:35.422Z,74
2019-05-25T01:40:35.463Z,74
2019-05-25T01:41:35.507Z,74
2019-05-25T01:42:35.518Z,74
2019-05-25T01:43:35.605Z,75
2019-05-25T01:44:35.630Z,75
2019-05-25T01:45:35.719Z,74
2019-05-25T01:46:35.680Z,74
2019-05-25T01:47:35.782Z,74
2019-05-25T01:48:35.789Z,74
2019-05-25T01:49:35.835Z,75
2019-05-25T01:50:35.838Z,75
2019-05-25T01:51:35.888Z,74
2019-05-25T01:52:35.897Z,74
2019-05-25T01:53:35.957Z,74
2019-05-25T01:54:35.989Z,74
2019-05-25T01:55:36.023Z,74
2019-05-25T01:56:36.065Z,74
2019-05-25T01:57:36.449Z,74
2019-05-25T01:58:36.172Z,74
2019-05-25T01:59:36.159Z,74
2019-05-25T02:00:36.223Z,74
2019-05-25T02:01:36.231Z,75
2019-05-25T02:02:36.249Z,75
2019-05-25T02:03:36.279Z,74
2019-05-25T02:04:36.285Z,74
2019-05-25T02:05:36.346Z,75
2019-05-25T02:06:36.378Z,75
2019-05-25T02:07:36.417Z,74
2019-05-25T02:08:36.400Z,75
2019-05-25T02:09:36.453Z,75
2019-05-25T02:10:36.418Z,75
2019-05-25T02:11:36.471Z,75
2019-05-25T02:12:36.534Z,75
2019-05-25T02:13:36.571Z,75
2019-05-25T02:14:36.550Z,76
2019-05-25T02:15:36.577Z,76
2019-05-25T02:16:36.582Z,76
2019-05-25T02:17:36.608Z,76
2019-05-25T02:18:36.648Z,76
2019-05-25T02:19:36.631Z,76
2019-05-25T02:20:36.670Z,76
2019-05-25T02:21:36.706Z,76
2019-05-25T02:22:36.689Z,76
2019-05-25T02:23:36.738Z,76
2019-05-25T02:24:36.721Z,76
2019-05-25T02:25:36.743Z,76
2019-05-25T02:26:36.754Z,76
2019-05-25T02:27:36.750Z,76
2019-05-25T02:28:36.745Z,76
2019-05-25T02:29:36.769Z,76
2019-05-25T02:30:36.840Z,76
2019-05-25T02:31:36.787Z,76
2019-05-25T02:32:36.815Z,76
2019-05-25T02:33:36.820Z,76
2019-05-25T02:34:36.824Z,76
2019-05-25T02:35:36.901Z,76
2019-05-25T02:36:36.838Z,76
2019-05-25T02:37:36.876Z,76
2019-05-25T02:38:36.898Z,76
2019-05-25T02:39:36.871Z,76
2019-05-25T02:40:36.917Z,76
2019-05-25T02:41:36.913Z,76
2019-05-25T02:42:36.897Z,77
2019-05-25T02:43:36.875Z,77
2019-05-25T02:44:36.889Z,77
2019-05-25T02:45:36.959Z,77
2019-05-25T02:46:37.007Z,77
2019-05-25T02:47:37.055Z,77
2019-05-25T02:48:37.090Z,77
2019-05-25T02:49:37.149Z,77
2019-05-25T02:50:37.199Z,77
2019-05-25T02:51:37.215Z,77
2019-05-25T02:52:37.229Z,77
2019-05-25T02:53:39.769Z,78
2019-05-25T02:54:37.355Z,78
2019-05-25T02:55:37.426Z,78
2019-05-25T02:56:37.425Z,78
2019-05-25T02:57:37.496Z,78
2019-05-25T02:58:37.522Z,78
2019-05-25T02:59:37.535Z,77
2019-05-25T03:00:37.599Z,77
2019-05-25T03:01:37.595Z,77
2019-05-25T03:02:37.682Z,77
2019-05-25T03:03:37.723Z,78
2019-05-25T03:04:37.771Z,78
2019-05-25T03:05:37.834Z,78
2019-05-25T03:06:37.817Z,78
2019-05-25T03:07:37.898Z,78
2019-05-25T03:08:37.979Z,78
2019-05-25T03:09:37.977Z,78
2019-05-25T03:10:38.002Z,78
2019-05-25T03:11:38.011Z,77
2019-05-25T03:12:38.013Z,78
2019-05-25T03:13:38.106Z,77
2019-05-25T03:14:38.061Z,77
2019-05-25T03:15:38.155Z,77
2019-05-25T03:16:38.129Z,77
2019-05-25T03:17:38.200Z,78
2019-05-25T03:18:38.244Z,78
2019-05-25T03:19:38.286Z,78
2019-05-25T03:20:38.362Z,78
2019-05-25T03:21:38.366Z,78
2019-05-25T03:22:38.419Z,78
2019-05-25T03:23:38.467Z,78
2019-05-25T03:24:38.472Z,78
2019-05-25T03:25:48.934Z,78
2019-05-25T03:26:38.558Z,79
2019-05-25T03:27:38.579Z,79
2019-05-25T03:28:38.681Z,79
2019-05-25T03:29:38.670Z,79
2019-05-25T03:30:38.684Z,79
2019-05-25T03:31:38.725Z,78
2019-05-25T03:32:38.794Z,78
2019-05-25T03:33:38.871Z,78
2019-05-25T03:34:38.900Z,78
2019-05-25T03:35:38.888Z,78
2019-05-25T03:36:38.948Z,78
2019-05-25T03:37:38.947Z,78
2019-05-25T03:38:39.056Z,78
2019-05-25T03:39:39.034Z,78
2019-05-25T03:40:39.067Z,78
2019-05-25T03:41:39.101Z,79
2019-05-25T03:42:39.121Z,78
2019-05-25T03:43:39.163Z,78
2019-05-25T03:44:39.173Z,78
2019-05-25T03:45:39.205Z,78
2019-05-25T03:46:39.268Z,78
2019-05-25T03:47:39.324Z,78
2019-05-25T03:48:39.337Z,78
2019-05-25T03:49:39.373Z,78
2019-05-25T03:50:42.009Z,78
2019-05-25T03:51:39.422Z,78
2019-05-25T03:52:39.431Z,79
2019-05-25T03:53:39.628Z,79
2019-05-25T03:54:42.002Z,79
2019-05-25T03:55:39.598Z,79
2019-05-25T03:56:39.539Z,79
2019-05-25T03:57:41.891Z,79
2019-05-25T03:58:39.754Z,79
2019-05-25T03:59:39.590Z,79
2019-05-25T04:00:39.643Z,79
2019-05-25T04:01:39.652Z,79
2019-05-25T04:02:39.727Z,79
2019-05-25T04:03:39.728Z,79
2019-05-25T04:04:39.755Z,79
2019-05-25T04:05:39.720Z,79
2019-05-25T04:06:39.755Z,78
2019-05-25T04:07:39.797Z,78
2019-05-25T04:08:39.848Z,79
2019-05-25T04:09:39.893Z,79
2019-05-25T04:10:39.857Z,79
2019-05-25T04:11:39.870Z,79
2019-05-25T04:12:39.907Z,79
2019-05-25T04:13:40.309Z,79
2019-05-25T04:14:39.999Z,79
2019-05-25T04:15:39.943Z,79
2019-05-25T04:16:39.966Z,79
2019-05-25T04:17:39.987Z,79
2019-05-25T04:18:39.977Z,79
2019-05-25T04:19:40.036Z,79
2019-05-25T04:20:40.029Z,79
2019-05-25T04:21:40.047Z,79
2019-05-25T04:22:40.106Z,79
2019-05-25T04:23:40.043Z,79
2019-05-25T04:24:40.131Z,79
2019-05-25T04:25:40.091Z,79
2019-05-25T04:26:40.084Z,79
2019-05-25T04:27:40.191Z,79
2019-05-25T04:28:40.120Z,79
2019-05-25T04:29:40.147Z,79
2019-05-25T04:30:40.125Z,79
2019-05-25T04:31:40.128Z,79
2019-05-25T04:32:40.113Z,79
2019-05-25T04:33:40.136Z,79
2019-05-25T04:34:40.195Z,79
2019-05-25T04:35:40.219Z,79
2019-05-25T04:36:40.155Z,79
2019-05-25T04:37:40.232Z,79
2019-05-25T04:38:40.207Z,79
2019-05-25T04:39:40.164Z,79
2019-05-25T04:40:40.162Z,79
2019-05-25T04:41:40.252Z,79
2019-05-25T04:42:40.277Z,79
2019-05-25T04:43:40.390Z,79
2019-05-25T04:44:40.384Z,79
2019-05-25T04:45:40.432Z,79
2019-05-25T04:46:40.489Z,79
2019-05-25T04:47:40.566Z,79
2019-05-25T04:48:40.626Z,79
2019-05-25T04:49:40.666Z,80
2019-05-25T04:50:40.731Z,80
2019-05-25T04:51:40.735Z,80
2019-05-25T04:52:41.520Z,79
2019-05-25T04:53:40.884Z,79
2019-05-25T04:54:40.859Z,79
2019-05-25T04:55:40.922Z,79
2019-05-25T04:56:40.943Z,79
2019-05-25T04:57:41.027Z,79
2019-05-25T04:58:41.067Z,79
2019-05-25T04:59:41.114Z,78
2019-05-25T05:00:41.129Z,78
2019-05-25T05:01:41.228Z,78
2019-05-25T05:02:41.262Z,78
2019-05-25T05:03:41.344Z,78
2019-05-25T05:04:41.330Z,77
2019-05-25T05:05:41.386Z,77
2019-05-25T05:06:41.484Z,76
2019-05-25T05:07:41.529Z,76
2019-05-25T05:08:41.551Z,76
2019-05-25T05:09:41.605Z,76
2019-05-25T05:10:41.625Z,76
2019-05-25T05:11:41.689Z,76
2019-05-25T05:12:41.728Z,76
2019-05-25T05:13:41.789Z,76
2019-05-25T05:14:41.807Z,76
2019-05-25T05:15:41.820Z,76
2019-05-25T05:16:41.896Z,75
2019-05-25T05:17:41.954Z,75
2019-05-25T05:18:41.928Z,74
2019-05-25T05:19:42.028Z,74
2019-05-25T05:20:42.030Z,75
2019-05-25T05:21:42.212Z,77
2019-05-25T05:22:42.124Z,77
2019-05-25T05:23:42.189Z,78
2019-05-25T05:24:42.227Z,77
2019-05-25T05:25:42.224Z,77
2019-05-25T05:26:55.104Z,76
2019-05-25T05:27:42.540Z,75
2019-05-25T05:28:42.323Z,76
2019-05-25T05:29:42.332Z,75
2019-05-25T05:30:42.364Z,75
2019-05-25T05:31:42.406Z,74
2019-05-25T05:32:42.454Z,74
2019-05-25T05:33:42.450Z,74
2019-05-25T05:34:42.530Z,75
2019-05-25T05:35:42.553Z,75
2019-05-25T05:36:42.542Z,75
2019-05-25T05:37:42.566Z,76
2019-05-25T05:38:42.590Z,75
2019-05-25T05:39:42.660Z,75
2019-05-25T05:40:42.656Z,74
2019-05-25T05:41:42.684Z,76
2019-05-25T05:42:42.748Z,76
2019-05-25T05:43:42.726Z,76
2019-05-25T05:44:42.819Z,74
2019-05-25T05:45:42.848Z,74
2019-05-25T05:46:42.837Z,74
2019-05-25T05:47:42.850Z,72
2019-05-25T05:48:42.894Z,74
2019-05-25T05:49:42.930Z,74
2019-05-25T05:50:42.923Z,73
2019-05-25T05:51:42.928Z,72
2019-05-25T05:52:42.967Z,72
2019-05-25T05:53:43.025Z,72
2019-05-25T05:54:44.901Z,72
2019-05-25T05:55:43.037Z,72
2019-05-25T05:56:43.062Z,71
2019-05-25T05:57:43.103Z,72
2019-05-25T05:58:43.095Z,72
2019-05-25T05:59:43.099Z,72
2019-05-25T06:00:43.188Z,72
2019-05-25T06:01:43.203Z,72
2019-05-25T06:02:43.222Z,71
2019-05-25T06:03:43.194Z,71
2019-05-25T06:04:43.233Z,72
2019-05-25T06:05:43.235Z,71
2019-05-25T06:06:43.235Z,70
2019-05-25T06:07:43.313Z,72
2019-05-25T06:08:43.286Z,72
2019-05-25T06:09:43.291Z,73
2019-05-25T06:10:43.244Z,71
2019-05-25T06:11:43.280Z,70
2019-05-25T06:12:43.355Z,69
2019-05-25T06:13:43.330Z,67
2019-05-25T06:14:43.347Z,67
2019-05-25T06:15:43.358Z,68
2019-05-25T06:16:43.369Z,67
2019-05-25T06:17:43.358Z,66
2019-05-25T06:18:43.391Z,65
2019-05-25T06:19:43.356Z,64
2019-05-25T06:20:43.352Z,64
2019-05-25T06:21:43.373Z,63
2019-05-25T06:22:43.431Z,65
2019-05-25T06:23:43.390Z,63
2019-05-25T06:24:43.381Z,63
2019-05-25T06:25:43.385Z,62
2019-05-25T06:26:43.363Z,60
2019-05-25T06:27:43.379Z,60
2019-05-25T06:28:43.460Z,60
2019-05-25T06:29:43.372Z,60
2019-05-25T06:30:43.358Z,60
2019-05-25T06:31:43.382Z,60
2019-05-25T06:32:43.412Z,59
2019-05-25T06:33:43.438Z,58
2019-05-25T06:34:43.472Z,57
2019-05-25T06:35:43.476Z,57
2019-05-25T06:36:43.534Z,57
2019-05-25T06:37:43.579Z,59
2019-05-25T06:38:43.710Z,58
2019-05-25T06:39:43.687Z,57
2019-05-25T06:40:43.753Z,58
2019-05-25T06:41:43.759Z,58
2019-05-25T06:42:43.826Z,57
2019-05-25T06:43:43.947Z,55
2019-05-25T06:44:43.945Z,54
2019-05-25T06:45:55.290Z,54
2019-05-25T06:46:43.927Z,54
2019-05-25T06:47:44.059Z,53
2019-05-25T06:48:44.037Z,52
2019-05-25T06:49:44.014Z,53
2019-05-25T06:50:44.141Z,52
2019-05-25T06:51:44.153Z,53
2019-05-25T06:52:44.196Z,53
2019-05-25T06:53:44.297Z,52
2019-05-25T06:54:44.260Z,53
2019-05-25T06:55:44.367Z,53
2019-05-25T06:56:44.419Z,53
2019-05-25T06:57:44.423Z,55
2019-05-25T06:58:44.463Z,54
2019-05-25T06:59:44.492Z,56
2019-05-25T07:00:44.569Z,53
2019-05-25T07:01:44.649Z,54
2019-05-25T07:02:44.692Z,52
2019-05-25T07:03:44.928Z,52
2019-05-25T07:04:44.772Z,52
2019-05-25T07:05:44.818Z,51
2019-05-25T07:06:44.933Z,51
2019-05-25T07:07:44.952Z,50
2019-05-25T07:08:44.977Z,52
2019-05-25T07:09:45.008Z,51
2019-05-25T07:10:45.053Z,48
2019-05-25T07:11:45.123Z,50
2019-05-25T07:12:45.133Z,50
2019-05-25T07:13:45.195Z,49
2019-05-25T07:14:45.173Z,48
2019-05-25T07:15:45.236Z,50
2019-05-25T07:16:45.304Z,49
2019-05-25T07:17:45.407Z,50
2019-05-25T07:18:45.319Z,49
2019-05-25T07:19:45.357Z,50
2019-05-25T07:20:45.469Z,47
2019-05-25T07:21:45.459Z,47
2019-05-25T07:22:45.513Z,48
2019-05-25T07:23:45.563Z,49
2019-05-25T07:24:45.608Z,50
2019-05-25T07:25:45.658Z,51
2019-05-25T07:26:48.922Z,49
2019-05-25T07:27:58.090Z,49
2019-05-25T07:28:45.757Z,47
2019-05-25T07:29:45.777Z,47
2019-05-25T07:30:46.637Z,48
2019-05-25T07:31:45.865Z,47
2019-05-25T07:32:45.933Z,47
2019-05-25T07:33:45.970Z,45
2019-05-25T07:34:45.977Z,45
2019-05-25T07:35:46.020Z,45
2019-05-25T07:36:46.028Z,49
2019-05-25T07:37:46.057Z,46
2019-05-25T07:38:46.096Z,47
2019-05-25T07:39:46.173Z,47
2019-05-25T07:40:46.182Z,47
2019-05-25T07:41:46.159Z,50
2019-05-25T07:42:46.200Z,45
2019-05-25T07:43:46.242Z,48
2019-05-25T07:44:46.243Z,48
2019-05-25T07:45:46.305Z,48
2019-05-25T07:46:46.293Z,47
2019-05-25T07:47:46.338Z,47
2019-05-25T07:48:46.392Z,46
2019-05-25T07:49:46.386Z,48
2019-05-25T07:50:46.420Z,47
2019-05-25T07:51:46.417Z,47
2019-05-25T07:52:46.429Z,48
2019-05-25T07:53:46.485Z,45
2019-05-25T07:54:46.494Z,47
2019-05-25T07:55:46.525Z,47
2019-05-25T07:56:46.531Z,46
2019-05-25T07:57:46.582Z,45
2019-05-25T07:58:46.613Z,46
2019-05-25T07:59:46.611Z,48
2019-05-25T08:00:46.606Z,48
2019-05-25T08:01:46.640Z,47
2019-05-25T08:02:46.664Z,45
2019-05-25T08:03:46.748Z,46
2019-05-25T08:04:46.698Z,46
2019-05-25T08:05:46.714Z,47
2019-05-25T08:06:46.725Z,46
2019-05-25T08:07:46.732Z,45
2019-05-25T08:08:46.783Z,47
2019-05-25T08:09:46.784Z,47
2019-05-25T08:10:46.828Z,46
2019-05-25T08:11:46.795Z,47
2019-05-25T08:12:46.821Z,48
2019-05-25T08:13:46.828Z,45
2019-05-25T08:14:46.818Z,44
2019-05-25T08:15:46.861Z,47
2019-05-25T08:16:46.825Z,49
2019-05-25T08:17:46.846Z,46
2019-05-25T08:18:46.871Z,44
2019-05-25T08:19:46.840Z,44
2019-05-25T08:20:47.410Z,46
2019-05-25T08:21:46.816Z,45
2019-05-25T08:22:46.864Z,47
2019-05-25T08:23:46.909Z,45
2019-05-25T08:24:47.013Z,46
2019-05-25T08:25:47.007Z,44
2019-05-25T08:26:47.094Z,45
2019-05-25T08:27:47.110Z,46
2019-05-25T08:28:47.164Z,47
2019-05-25T08:29:47.248Z,45
2019-05-25T08:30:47.591Z,46
2019-05-25T08:31:47.338Z,47
2019-05-25T08:32:47.456Z,46
2019-05-25T08:33:47.423Z,43
2019-05-25T08:34:47.781Z,45
2019-05-25T08:35:47.604Z,45
2019-05-25T08:36:47.625Z,43
2019-05-25T08:37:47.643Z,43
2019-05-25T08:38:47.704Z,41
2019-05-25T08:39:47.755Z,44
2019-05-25T08:40:50.415Z,43
2019-05-25T08:41:47.842Z,44
2019-05-25T08:42:47.834Z,43
2019-05-25T08:43:47.997Z,43
2019-05-25T08:44:47.872Z,42
2019-05-25T08:45:47.877Z,41
2019-05-25T08:46:48.110Z,40
2019-05-25T08:47:47.978Z,42
2019-05-25T08:48:48.040Z,41
2019-05-25T08:49:48.093Z,41
2019-05-25T08:50:48.164Z,43
2019-05-25T08:51:48.214Z,41
2019-05-25T08:52:48.234Z,41
2019-05-25T08:53:48.261Z,41
2019-05-25T08:54:48.299Z,42
2019-05-25T08:55:48.335Z,43
2019-05-25T08:56:48.371Z,44
2019-05-25T08:57:48.469Z,45
2019-05-25T08:58:48.883Z,43
2019-05-25T08:59:48.519Z,44
2019-05-25T09:00:48.571Z,44
2019-05-25T09:01:48.844Z,41
2019-05-25T09:02:51.116Z,43
2019-05-25T09:03:48.658Z,41
2019-05-25T09:04:48.687Z,43
2019-05-25T09:05:48.686Z,41
2019-05-25T09:06:48.723Z,42
2019-05-25T09:07:48.790Z,43
2019-05-25T09:08:48.820Z,42
2019-05-25T09:09:48.854Z,41
2019-05-25T09:10:48.892Z,41
2019-05-25T09:11:48.922Z,40
2019-05-25T09:12:48.968Z,41
2019-05-25T09:13:48.981Z,41
2019-05-25T09:14:49.023Z,42
2019-05-25T09:15:49.083Z,40
2019-05-25T09:16:49.088Z,41
2019-05-25T09:17:49.124Z,40
2019-05-25T09:18:49.139Z,42
2019-05-25T09:19:49.160Z,42
2019-05-25T09:20:49.543Z,42
2019-05-25T09:22:01.785Z,41
2019-05-25T09:22:49.244Z,40
2019-05-25T09:23:49.336Z,40
2019-05-25T09:24:49.308Z,40
2019-05-25T09:25:49.341Z,41
2019-05-25T09:26:49.404Z,40
2019-05-25T09:27:49.406Z,42
2019-05-25T09:29:03.357Z,41
2019-05-25T09:29:49.480Z,43
2019-05-25T09:30:49.502Z,44
2019-05-25T09:31:49.548Z,40
2019-05-25T09:32:49.582Z,39
2019-05-25T09:33:49.642Z,40
2019-05-25T09:34:49.610Z,39
2019-05-25T09:35:49.707Z,40
2019-05-25T09:36:49.680Z,40
2019-05-25T09:37:49.687Z,39
2019-05-25T09:38:49.804Z,40
2019-05-25T09:39:49.746Z,40
2019-05-25T09:40:49.760Z,41
2019-05-25T09:41:49.745Z,40
2019-05-25T09:42:49.837Z,39
2019-05-25T09:43:49.809Z,39
2019-05-25T09:44:49.808Z,41
2019-05-25T09:45:49.838Z,41
2019-05-25T09:46:49.826Z,40
2019-05-25T09:47:49.836Z,40
2019-05-25T09:48:49.866Z,39
2019-05-25T09:49:49.857Z,39
2019-05-25T09:50:49.916Z,38
2019-05-25T09:51:49.881Z,38
2019-05-25T09:52:49.933Z,37
2019-05-25T09:53:49.925Z,37
2019-05-25T09:54:51.511Z,39
2019-05-25T09:55:49.996Z,38
2019-05-25T09:56:49.971Z,38
2019-05-25T09:57:49.971Z,37
2019-05-25T09:58:49.947Z,38
2019-05-25T09:59:49.983Z,38
2019-05-25T10:00:50.113Z,39
2019-05-25T10:01:49.973Z,38
2019-05-25T10:02:49.991Z,39
2019-05-25T10:03:49.960Z,39
2019-05-25T10:04:49.983Z,40
2019-05-25T10:05:50.078Z,40
2019-05-25T10:06:50.080Z,38
2019-05-25T10:07:50.093Z,40
2019-05-25T10:08:50.129Z,40
2019-05-25T10:09:50.150Z,38
2019-05-25T10:10:50.240Z,38
2019-05-25T10:11:50.251Z,39
2019-05-25T10:12:50.363Z,39
2019-05-25T10:13:50.340Z,40
2019-05-25T10:14:50.398Z,40
2019-05-25T10:15:50.412Z,41
2019-05-25T10:16:50.463Z,40
2019-05-25T10:17:50.527Z,40
2019-05-25T10:18:50.559Z,39
2019-05-25T10:19:50.605Z,38
2019-05-25T10:20:50.619Z,39
2019-05-25T10:21:50.680Z,39
2019-05-25T10:22:50.753Z,38
2019-05-25T10:23:50.787Z,38
2019-05-25T10:24:53.037Z,38
2019-05-25T10:25:50.895Z,37
2019-05-25T10:26:50.901Z,37
2019-05-25T10:27:50.908Z,38
2019-05-25T10:28:50.976Z,37
2019-05-25T10:29:51.043Z,38
2019-05-25T10:30:51.030Z,38
2019-05-25T10:31:51.116Z,38
2019-05-25T10:32:51.386Z,38
2019-05-25T10:33:51.245Z,38
2019-05-25T10:34:51.260Z,38
2019-05-25T10:35:51.354Z,39
2019-05-25T10:36:51.377Z,40
2019-05-25T10:37:51.430Z,40
2019-05-25T10:38:51.755Z,41
2019-05-25T10:39:51.483Z,40
2019-05-25T10:40:51.484Z,39
2019-05-25T10:41:51.554Z,41
2019-05-25T10:42:51.628Z,39
2019-05-25T10:43:51.563Z,39
2019-05-25T10:44:51.630Z,41
2019-05-25T10:45:51.651Z,40
2019-05-25T10:46:51.740Z,40
2019-05-25T10:47:51.799Z,39
2019-05-25T10:48:51.827Z,42
2019-05-25T10:49:51.837Z,39
2019-05-25T10:50:51.822Z,42
2019-05-25T10:51:51.913Z,42
2019-05-25T10:52:51.970Z,42
2019-05-25T10:53:51.940Z,41
2019-05-25T10:54:51.976Z,40
2019-05-25T10:55:52.004Z,40
2019-05-25T10:56:52.045Z,39
2019-05-25T10:57:52.062Z,40
2019-05-25T10:58:52.125Z,39
2019-05-25T10:59:53.486Z,39
2019-05-25T11:00:52.166Z,41
2019-05-25T11:01:52.218Z,42
2019-05-25T11:02:52.309Z,40
2019-05-25T11:03:52.308Z,40
2019-05-25T11:04:52.357Z,41
2019-05-25T11:05:52.410Z,42
2019-05-25T11:06:52.496Z,40
2019-05-25T11:07:52.455Z,40
2019-05-25T11:08:52.619Z,40
2019-05-25T11:09:52.580Z,41
2019-05-25T11:10:52.575Z,40
2019-05-25T11:11:52.560Z,42
2019-05-25T11:12:52.607Z,42
2019-05-25T11:13:52.637Z,41
2019-05-25T11:14:52.702Z,42
2019-05-25T11:15:52.663Z,41
2019-05-25T11:16:52.723Z,43
2019-05-25T11:17:52.761Z,41
2019-05-25T11:18:52.744Z,39
2019-05-25T11:19:52.820Z,40
2019-05-25T11:20:52.843Z,42
2019-05-25T11:21:52.847Z,41
2019-05-25T11:22:52.869Z,41
2019-05-25T11:23:52.884Z,41
2019-05-25T11:24:52.910Z,40
2019-05-25T11:25:52.943Z,41
2019-05-25T11:26:52.970Z,39
2019-05-25T11:27:52.942Z,41
2019-05-25T11:28:52.992Z,39
2019-05-25T11:30:07.737Z,39
2019-05-25T11:30:52.988Z,41
2019-05-25T11:31:58.193Z,40
2019-05-25T11:32:53.013Z,40
2019-05-25T11:33:53.026Z,39
2019-05-25T11:34:53.077Z,40
2019-05-25T11:35:53.016Z,39
2019-05-25T11:36:53.038Z,39
2019-05-25T11:37:53.074Z,40
2019-05-25T11:38:53.067Z,39
2019-05-25T11:39:53.112Z,38
2019-05-25T11:40:53.065Z,39
2019-05-25T11:41:53.086Z,40
2019-05-25T11:42:53.098Z,39
2019-05-25T11:43:53.097Z,39
2019-05-25T11:44:53.138Z,38
2019-05-25T11:45:53.111Z,39
2019-05-25T11:46:53.114Z,40
2019-05-25T11:47:53.199Z,39
2019-05-25T11:48:53.111Z,39
2019-05-25T11:49:53.151Z,41
2019-05-25T11:50:53.151Z,41
2019-05-25T11:51:53.127Z,42
2019-05-25T11:52:53.166Z,41
2019-05-25T11:53:53.106Z,42
2019-05-25T11:54:53.107Z,41
2019-05-25T11:55:53.261Z,41
2019-05-25T11:56:53.304Z,41
2019-05-25T11:57:53.261Z,39
2019-05-25T11:58:53.270Z,40
2019-05-25T11:59:53.311Z,39
2019-05-25T12:00:53.324Z,39
2019-05-25T12:01:53.437Z,41
2019-05-25T12:02:53.441Z,41
2019-05-25T12:03:53.493Z,38
2019-05-25T12:04:53.590Z,36
2019-05-25T12:05:53.635Z,38
2019-05-25T12:06:53.758Z,39
2019-05-25T12:07:53.759Z,37
2019-05-25T12:08:53.819Z,38
2019-05-25T12:09:53.863Z,38
2019-05-25T12:10:56.241Z,40
2019-05-25T12:11:53.982Z,40
2019-05-25T12:12:54.069Z,39
2019-05-25T12:13:54.067Z,40
2019-05-25T12:14:54.149Z,40
2019-05-25T12:15:54.137Z,41
2019-05-25T12:16:54.185Z,39
2019-05-25T12:17:54.273Z,41
2019-05-25T12:18:54.254Z,42
2019-05-25T12:19:54.319Z,42
2019-05-25T12:20:54.343Z,39
2019-05-25T12:21:54.384Z,39
2019-05-25T12:22:54.459Z,41
2019-05-25T12:23:54.523Z,42
2019-05-25T12:24:54.558Z,42
2019-05-25T12:25:54.596Z,40
2019-05-25T12:26:54.610Z,38
2019-05-25T12:27:54.659Z,38
2019-05-25T12:28:54.733Z,39
2019-05-25T12:29:54.754Z,39
2019-05-25T12:30:54.870Z,38
2019-05-25T12:32:03.573Z,38
2019-05-25T12:32:54.816Z,37
2019-05-25T12:33:54.864Z,36
2019-05-25T12:34:54.851Z,37
2019-05-25T12:35:54.867Z,37
2019-05-25T12:36:54.927Z,38
2019-05-25T12:37:54.988Z,37
2019-05-25T12:38:55.054Z,39
2019-05-25T12:39:55.069Z,39
2019-05-25T12:40:55.100Z,39
2019-05-25T12:41:55.086Z,39
2019-05-25T12:42:55.140Z,38
2019-05-25T12:43:55.222Z,37
2019-05-25T12:44:55.230Z,38
2019-05-25T12:45:55.191Z,37
2019-05-25T12:46:55.223Z,37
2019-05-25T12:47:55.291Z,36
2019-05-25T12:48:55.330Z,36
2019-05-25T12:49:55.350Z,36
2019-05-25T12:50:55.373Z,37
2019-05-25T12:51:55.408Z,37
2019-05-25T12:52:55.399Z,38
2019-05-25T12:53:55.446Z,38
2019-05-25T12:54:55.538Z,37
2019-05-25T12:55:55.498Z,37
2019-05-25T12:56:55.497Z,37
2019-05-25T12:57:55.541Z,36
2019-05-25T12:58:55.572Z,37
2019-05-25T12:59:55.585Z,38
2019-05-25T13:00:56.474Z,37
2019-05-25T13:01:55.649Z,39
2019-05-25T13:02:55.668Z,39
2019-05-25T13:03:55.714Z,38
2019-05-25T13:04:55.746Z,38
2019-05-25T13:05:55.786Z,39
2019-05-25T13:06:55.782Z,38
2019-05-25T13:07:55.831Z,38
2019-05-25T13:08:55.872Z,39
2019-05-25T13:09:55.862Z,40
2019-05-25T13:10:55.899Z,40
2019-05-25T13:11:55.867Z,40
2019-05-25T13:12:57.637Z,39
2019-05-25T13:13:55.938Z,40
2019-05-25T13:14:55.997Z,39
2019-05-25T13:15:56.019Z,39
2019-05-25T13:16:56.043Z,39
2019-05-25T13:17:56.099Z,40
2019-05-25T13:18:56.072Z,40
2019-05-25T13:19:56.078Z,40
2019-05-25T13:20:56.081Z,40
2019-05-25T13:21:56.125Z,40
2019-05-25T13:22:56.143Z,40
2019-05-25T13:23:56.173Z,39
2019-05-25T13:24:56.145Z,39
2019-05-25T13:25:56.170Z,40
2019-05-25T13:26:56.231Z,40
2019-05-25T13:27:56.201Z,39
2019-05-25T13:28:56.221Z,39
2019-05-25T13:29:56.233Z,40
2019-05-25T13:31:08.914Z,40
2019-05-25T13:31:56.316Z,41
2019-05-25T13:32:56.269Z,40
2019-05-25T13:33:58.530Z,41
2019-05-25T13:34:56.282Z,41
2019-05-25T13:35:56.287Z,41
2019-05-25T13:36:56.344Z,42
2019-05-25T13:37:56.312Z,40
2019-05-25T13:38:56.357Z,40
2019-05-25T13:39:56.286Z,40
2019-05-25T13:40:56.325Z,42
2019-05-25T13:41:56.348Z,40
2019-05-25T13:42:56.339Z,41
2019-05-25T13:43:56.399Z,41
2019-05-25T13:44:56.415Z,41
2019-05-25T13:45:56.449Z,40
2019-05-25T13:46:56.507Z,41
2019-05-25T13:47:56.522Z,39
2019-05-25T13:48:56.544Z,41
2019-05-25T13:49:56.646Z,40
2019-05-25T13:50:56.666Z,40
2019-05-25T13:51:56.734Z,40
2019-05-25T13:52:56.753Z,40
2019-05-25T13:53:56.800Z,40
2019-05-25T13:54:56.855Z,39
2019-05-25T13:55:56.914Z,41
2019-05-25T13:56:56.922Z,42
2019-05-25T13:57:57.012Z,42
2019-05-25T13:58:57.020Z,42
2019-05-25T13:59:57.023Z,41
2019-05-25T14:00:57.085Z,39
2019-05-25T14:01:57.180Z,40
2019-05-25T14:02:57.185Z,39
2019-05-25T14:03:57.282Z,40
2019-05-25T14:04:57.287Z,39
2019-05-25T14:05:57.339Z,40
2019-05-25T14:06:57.313Z,40
2019-05-25T14:07:57.338Z,39
2019-05-25T14:08:57.374Z,40
2019-05-25T14:09:57.427Z,39
2019-05-25T14:10:57.500Z,39
2019-05-25T14:11:57.543Z,38
2019-05-25T14:12:57.566Z,39
2019-05-25T14:13:57.636Z,39
2019-05-25T14:14:57.590Z,39
2019-05-25T14:16:06.489Z,40